Time;durP1;ratioP1;P1;durP2;ratioP2;P2;SDS_P1;SDS_P2;PMS_P1;PMS_P2;Temp;Humidity;BMP_temperature;BMP_pressure;BME280_temperature;BME280_humidity;BME280_pressure;Samples;Min_cycle;Max_cycle;Signal;HPM_P1;HPM_P2
2022/10/05 00:00:20;;;;;;;10.03;7.90;;;11.60;99.90;;;;;;5112096;28;20466;-56
2022/10/05 00:02:48;;;;;;;8.03;6.43;;;11.50;99.90;;;;;;5114227;28;20569;-55
2022/10/05 00:05:25;;;;;;;7.27;6.57;;;11.50;99.90;;;;;;5113877;28;20490;-55
2022/10/05 00:07:53;;;;;;;8.80;7.27;;;11.50;99.90;;;;;;5112667;28;20446;-55
2022/10/05 00:10:21;;;;;;;7.83;7.00;;;11.50;99.90;;;;;;5113892;28;20553;-56
2022/10/05 00:12:50;;;;;;;7.07;6.40;;;11.60;99.90;;;;;;5113539;28;20463;-55
2022/10/05 00:15:20;;;;;;;7.40;6.70;;;11.60;99.90;;;;;;5112549;28;20458;-56
2022/10/05 00:17:47;;;;;;;8.47;7.17;;;11.50;99.90;;;;;;5114086;28;20462;-56
2022/10/05 00:20:19;;;;;;;7.40;6.70;;;11.60;99.90;;;;;;5113715;28;20442;-56
2022/10/05 00:22:46;;;;;;;7.77;7.00;;;11.60;99.90;;;;;;5112840;28;20506;-56
2022/10/05 00:25:17;;;;;;;7.73;7.03;;;11.70;99.90;;;;;;5113814;28;20450;-56
2022/10/05 00:27:55;;;;;;;8.00;6.00;;;11.80;99.90;;;;;;5112977;28;20439;-55
2022/10/05 00:30:24;;;;;;;7.40;6.60;;;11.90;99.90;;;;;;5113785;28;20454;-56
2022/10/05 00:32:52;;;;;;;6.90;6.13;;;11.90;99.90;;;;;;5113120;28;20455;-55
2022/10/05 00:35:20;;;;;;;6.87;6.27;;;11.90;99.90;;;;;;5111829;28;20538;-56
2022/10/05 00:37:52;;;;;;;12.10;7.10;;;12.00;99.90;;;;;;5113502;28;20968;-55
2022/10/05 00:40:38;;;;;;;7.47;6.70;;;12.00;99.90;;;;;;5113477;28;20479;-56
2022/10/05 00:43:47;;;;;;;6.63;6.03;;;12.00;99.90;;;;;;5111568;28;20492;-55
2022/10/05 00:46:17;;;;;;;7.67;6.87;;;12.10;99.90;;;;;;5106691;28;20454;-56
2022/10/05 00:48:52;;;;;;;7.87;7.07;;;11.90;99.90;;;;;;5113406;28;20433;-55
2022/10/05 00:51:26;;;;;;;6.43;5.93;;;11.90;99.90;;;;;;5111220;28;20430;-56
2022/10/05 00:54:15;;;;;;;9.20;6.83;;;11.90;99.90;;;;;;5113073;28;20557;-55
2022/10/05 00:57:01;;;;;;;7.30;6.40;;;11.90;99.90;;;;;;5113409;28;20507;-56
2022/10/05 00:59:40;;;;;;;6.77;5.90;;;11.80;99.90;;;;;;5111520;28;20434;-55
2022/10/05 01:02:13;;;;;;;8.07;6.23;;;11.80;99.90;;;;;;5113062;28;20469;-55
2022/10/05 01:04:48;;;;;;;6.33;5.73;;;11.90;99.90;;;;;;5113531;28;20453;-55
2022/10/05 01:07:23;;;;;;;7.53;6.80;;;12.00;99.90;;;;;;5112521;28;20433;-55
2022/10/05 01:09:56;;;;;;;7.53;6.53;;;11.90;99.90;;;;;;5112727;28;20433;-56
2022/10/05 01:12:31;;;;;;;12.93;6.63;;;11.90;99.90;;;;;;5110986;28;20459;-56
2022/10/05 01:15:06;;;;;;;9.93;7.10;;;11.90;99.90;;;;;;5113237;28;20452;-55
2022/10/05 01:17:40;;;;;;;8.73;7.83;;;12.00;99.90;;;;;;5113285;28;20426;-56
2022/10/05 01:20:19;;;;;;;8.50;7.63;;;12.00;99.90;;;;;;5110529;28;20453;-55
2022/10/05 01:23:13;;;;;;;11.90;7.27;;;11.90;99.90;;;;;;5112806;28;20481;-56
2022/10/05 01:25:50;;;;;;;7.47;6.83;;;11.90;99.90;;;;;;5112778;28;20805;-56
2022/10/05 01:28:23;;;;;;;7.80;7.00;;;11.90;99.90;;;;;;5111067;28;20514;-56
2022/10/05 01:31:03;;;;;;;9.00;6.77;;;11.90;99.90;;;;;;5112720;28;20800;-55
2022/10/05 01:33:37;;;;;;;14.10;8.40;;;11.90;99.90;;;;;;5112834;28;20490;-55
2022/10/05 01:36:11;;;;;;;8.30;7.50;;;11.90;99.90;;;;;;5110625;28;20415;-56
2022/10/05 01:38:49;;;;;;;7.90;7.10;;;11.80;99.90;;;;;;5113060;28;20430;-56
2022/10/05 01:41:25;;;;;;;6.43;5.93;;;11.80;99.90;;;;;;5112449;28;20513;-56
2022/10/05 01:43:59;;;;;;;13.30;8.10;;;11.70;99.90;;;;;;5110194;28;20553;-56
2022/10/05 01:46:36;;;;;;;10.07;7.10;;;11.80;99.90;;;;;;5112790;28;20418;-56
2022/10/05 01:49:24;;;;;;;8.53;7.60;;;11.80;99.90;;;;;;5112565;28;20458;-55
2022/10/05 01:52:04;;;;;;;7.90;6.77;;;11.70;99.90;;;;;;5112655;28;20918;-56
2022/10/05 01:54:41;;;;;;;8.77;7.40;;;11.60;99.90;;;;;;5112323;28;20470;-56
2022/10/05 01:57:19;;;;;;;7.20;6.60;;;11.50;99.90;;;;;;5110816;28;20804;-56
2022/10/05 02:00:02;;;;;;;7.47;6.67;;;11.50;99.90;;;;;;5112517;28;20426;-56
2022/10/05 02:02:31;;;;;;;8.20;6.50;;;11.50;99.90;;;;;;5112460;28;20471;-56
2022/10/05 02:05:06;;;;;;;8.77;7.87;;;11.50;99.90;;;;;;5110211;28;20947;-55
2022/10/05 02:07:39;;;;;;;8.03;7.33;;;11.50;99.90;;;;;;5112309;28;21011;-55
2022/10/05 02:10:14;;;;;;;8.17;7.23;;;11.30;99.90;;;;;;5112736;28;20783;-56
2022/10/05 02:12:43;;;;;;;7.90;6.80;;;11.30;99.90;;;;;;5110270;28;20462;-56
2022/10/05 02:15:16;;;;;;;6.93;6.27;;;11.30;99.90;;;;;;5112455;28;20929;-56
2022/10/05 02:17:46;;;;;;;7.50;6.90;;;11.30;99.90;;;;;;5112611;28;20434;-55
2022/10/05 02:20:20;;;;;;;9.80;7.20;;;11.30;99.90;;;;;;5110316;28;20442;-55
2022/10/05 02:22:51;;;;;;;7.83;7.00;;;11.10;99.90;;;;;;5112332;28;20473;-55
2022/10/05 02:25:22;;;;;;;9.00;8.20;;;11.10;99.90;;;;;;5112436;28;20450;-55
2022/10/05 02:27:53;;;;;;;8.30;7.50;;;11.10;99.90;;;;;;5110233;28;20457;-56
2022/10/05 02:30:22;;;;;;;8.90;7.90;;;;;;;;;;5112501;28;20546;-56
2022/10/05 02:32:53;;;;;;;9.10;7.60;;;11.00;99.90;;;;;;5114485;28;20462;-55
2022/10/05 02:35:22;;;;;;;6.87;6.23;;;11.10;99.90;;;;;;5114242;28;20762;-55
2022/10/05 02:38:01;;;;;;;8.30;7.10;;;11.20;99.90;;;;;;5115730;28;20545;-55
2022/10/05 02:40:43;;;;;;;7.50;6.80;;;11.10;99.90;;;;;;5115650;28;20923;-55
2022/10/05 02:43:20;;;;;;;7.43;6.70;;;11.00;99.90;;;;;;5113872;28;20486;-56
2022/10/05 02:45:57;;;;;;;11.47;8.47;;;10.90;99.90;;;;;;5116040;28;20426;-55
2022/10/05 02:48:40;;;;;;;9.20;7.10;;;10.90;99.90;;;;;;5114287;28;20430;-55
2022/10/05 02:51:15;;;;;;;8.80;7.90;;;10.90;99.90;;;;;;5115556;28;20429;-55
2022/10/05 02:53:49;;;;;;;10.00;7.73;;;11.00;99.90;;;;;;5115647;28;20472;-56
2022/10/05 02:56:26;;;;;;;8.17;7.37;;;11.00;99.90;;;;;;5113279;28;20411;-55
2022/10/05 02:59:02;;;;;;;11.00;8.20;;;11.00;99.90;;;;;;5115359;28;20920;-55
2022/10/05 03:01:35;;;;;;;7.97;7.17;;;10.90;99.90;;;;;;5115078;28;20840;-55
2022/10/05 03:04:13;;;;;;;7.70;6.80;;;10.90;99.90;;;;;;5113577;28;20911;-56
2022/10/05 03:06:50;;;;;;;8.00;7.07;;;10.80;99.90;;;;;;5115656;28;20463;-56
2022/10/05 03:09:20;;;;;;;9.00;8.20;;;10.90;99.90;;;;;;5115284;28;20525;-55
2022/10/05 03:11:56;;;;;;;8.47;7.70;;;10.80;99.90;;;;;;5113421;28;20861;-55
2022/10/05 03:14:33;;;;;;;9.77;8.83;;;10.80;99.90;;;;;;5115414;28;20422;-55
2022/10/05 03:17:11;;;;;;;10.27;8.97;;;10.80;99.90;;;;;;5114924;28;20430;-55
2022/10/05 03:20:04;;;;;;;13.40;7.93;;;10.80;99.90;;;;;;5113000;28;20454;-55
2022/10/05 03:22:46;;;;;;;9.80;8.77;;;10.80;99.90;;;;;;5114648;28;20476;-55
2022/10/05 03:25:36;;;;;;;9.80;8.17;;;10.90;99.90;;;;;;5115268;28;20801;-55
2022/10/05 03:28:14;;;;;;;11.87;7.80;;;10.80;99.90;;;;;;5114622;28;20894;-55
2022/10/05 03:30:49;;;;;;;9.80;7.83;;;10.70;99.90;;;;;;5114466;28;20454;-55
2022/10/05 03:33:25;;;;;;;9.97;8.37;;;10.70;99.90;;;;;;5112731;28;20489;-55
2022/10/05 03:36:02;;;;;;;9.10;8.20;;;10.80;99.90;;;;;;5114611;28;20427;-55
2022/10/05 03:38:39;;;;;;;9.20;8.17;;;10.80;99.90;;;;;;5114453;28;20530;-55
2022/10/05 03:41:12;;;;;;;8.57;7.80;;;10.80;99.90;;;;;;5112671;28;20430;-55
2022/10/05 03:43:58;;;;;;;8.50;7.63;;;10.80;99.90;;;;;;5113253;28;20976;-56
2022/10/05 03:46:41;;;;;;;8.50;7.47;;;10.70;99.90;;;;;;5114483;28;20430;-56
2022/10/05 03:49:17;;;;;;;9.90;8.50;;;10.80;99.90;;;;;;5110814;28;20449;-55
2022/10/05 03:51:51;;;;;;;9.90;7.10;;;10.80;99.90;;;;;;5114386;28;20475;-55
2022/10/05 03:54:23;;;;;;;8.67;7.80;;;10.80;99.90;;;;;;5114243;28;20485;-55
2022/10/05 03:56:55;;;;;;;8.43;7.03;;;10.80;99.90;;;;;;5112008;28;20906;-55
2022/10/05 03:59:26;;;;;;;17.10;9.10;;;10.80;99.90;;;;;;5114408;28;20462;-55
2022/10/05 04:01:56;;;;;;;11.20;8.03;;;10.80;99.90;;;;;;5114602;28;20477;-55
2022/10/05 04:04:31;;;;;;;8.87;7.00;;;10.70;99.90;;;;;;5112252;28;20469;-55
2022/10/05 04:06:59;;;;;;;8.53;7.23;;;10.70;99.90;;;;;;5114003;28;20525;-55
2022/10/05 04:09:28;;;;;;;11.20;7.17;;;;;;;;;;5113808;28;20482;-55
2022/10/05 04:12:04;;;;;;;8.63;7.77;;;10.70;99.90;;;;;;5111614;28;20830;-55
2022/10/05 04:14:37;;;;;;;9.47;7.53;;;10.70;99.90;;;;;;5114392;28;20518;-55
2022/10/05 04:17:09;;;;;;;12.60;7.93;;;10.70;99.90;;;;;;5113947;28;20442;-55
2022/10/05 04:19:43;;;;;;;10.37;8.20;;;10.70;99.90;;;;;;5112586;28;20431;-56
2022/10/05 04:22:14;;;;;;;8.17;7.40;;;10.70;99.90;;;;;;5113858;28;20881;-55
2022/10/05 04:24:48;;;;;;;10.50;7.97;;;10.50;99.90;;;;;;5111685;28;20466;-55
2022/10/05 04:27:18;;;;;;;11.80;7.27;;;10.40;99.90;;;;;;5113573;28;20933;-55
2022/10/05 04:29:50;;;;;;;8.10;7.20;;;10.50;99.90;;;;;;5113329;28;20496;-55
2022/10/05 04:32:29;;;;;;;9.50;8.60;;;10.50;99.90;;;;;;5111298;28;20742;-55
2022/10/05 04:35:37;;;;;;;9.53;8.63;;;10.50;99.90;;;;;;5113709;28;20430;-55
2022/10/05 04:38:17;;;;;;;9.93;7.87;;;10.50;99.90;;;;;;5030764;28;20909;-55
2022/10/05 04:40:57;;;;;;;10.60;9.47;;;10.50;99.90;;;;;;5099450;28;20446;-55
2022/10/05 04:43:35;;;;;;;9.10;7.73;;;10.50;99.90;;;;;;5113479;28;20486;-55
2022/10/05 04:46:23;;;;;;;8.20;7.40;;;10.60;99.90;;;;;;5113320;28;20799;-55
2022/10/05 04:49:08;;;;;;;9.87;7.90;;;10.60;99.90;;;;;;5110684;28;20522;-55
2022/10/05 04:51:42;;;;;;;13.73;8.67;;;10.50;99.90;;;;;;5113207;28;20965;-55
2022/10/05 04:54:27;;;;;;;12.70;9.30;;;10.40;99.90;;;;;;5112553;28;20897;-55
2022/10/05 04:56:58;;;;;;;12.63;8.00;;;10.50;99.90;;;;;;5112304;28;20540;-55
2022/10/05 04:59:53;;;;;;;10.37;8.83;;;10.40;99.90;;;;;;5113465;28;20427;-56
2022/10/05 05:02:30;;;;;;;8.90;8.00;;;10.40;99.90;;;;;;5110522;28;20466;-55
2022/10/05 05:05:23;;;;;;;13.43;8.60;;;10.50;99.90;;;;;;5113074;28;20468;-56
2022/10/05 05:07:59;;;;;;;8.93;7.67;;;10.60;99.90;;;;;;5109561;28;20466;-55
2022/10/05 05:10:58;;;;;;;10.53;9.43;;;10.60;99.90;;;;;;5111108;28;20428;-55
2022/10/05 05:13:41;;;;;;;10.07;9.17;;;10.60;99.90;;;;;;5112632;28;21043;-56
2022/10/05 05:16:16;;;;;;;9.53;8.60;;;10.60;99.90;;;;;;5112892;28;20431;-55
2022/10/05 05:19:14;;;;;;;9.83;8.83;;;10.70;99.90;;;;;;5110727;28;20908;-55
2022/10/05 05:21:51;;;;;;;12.50;8.97;;;10.70;99.90;;;;;;5112854;28;20463;-55
2022/10/05 05:24:28;;;;;;;9.77;8.87;;;10.70;99.90;;;;;;5110084;28;21019;-55
2022/10/05 05:27:09;;;;;;;9.27;8.40;;;10.60;99.90;;;;;;5113186;28;20495;-55
2022/10/05 05:29:50;;;;;;;10.63;9.57;;;10.60;99.90;;;;;;5112521;28;20437;-56
2022/10/05 05:32:24;;;;;;;12.77;9.50;;;10.50;99.90;;;;;;5109696;28;20462;-55
2022/10/05 05:35:07;;;;;;;14.93;9.83;;;10.40;99.90;;;;;;5112654;28;20445;-55
2022/10/05 05:37:41;;;;;;;12.67;9.00;;;10.50;99.90;;;;;;5112270;28;20510;-55
2022/10/05 05:40:16;;;;;;;9.20;8.10;;;10.50;99.90;;;;;;5109095;28;20547;-55
2022/10/05 05:42:51;;;;;;;10.23;9.20;;;10.40;99.90;;;;;;5112071;28;20453;-55
2022/10/05 05:45:26;;;;;;;11.10;9.63;;;10.40;99.90;;;;;;5112048;28;20462;-56
2022/10/05 05:47:57;;;;;;;10.53;9.43;;;10.40;99.90;;;;;;5110824;28;20465;-55
2022/10/05 05:50:40;;;;;;;10.00;8.97;;;10.30;99.90;;;;;;5112439;28;20446;-55
2022/10/05 05:53:15;;;;;;;11.17;10.00;;;10.40;99.90;;;;;;5111593;28;20478;-55
2022/10/05 05:55:47;;;;;;;11.03;9.80;;;10.30;99.90;;;;;;5110540;28;20418;-54
2022/10/05 05:58:22;;;;;;;9.77;8.50;;;10.30;99.90;;;;;;5112129;28;20520;-55
2022/10/05 06:00:57;;;;;;;12.43;9.60;;;10.40;99.90;;;;;;5111592;28;20507;-55
2022/10/05 06:03:30;;;;;;;11.57;9.00;;;10.40;99.90;;;;;;5111971;28;20466;-55
2022/10/05 06:06:00;;;;;;;10.00;9.00;;;10.40;99.90;;;;;;5111327;28;20476;-55
2022/10/05 06:08:35;;;;;;;19.13;9.20;;;10.50;99.90;;;;;;5113453;28;20450;-55
2022/10/05 06:11:10;;;;;;;10.37;9.37;;;10.40;99.90;;;;;;5116263;28;20954;-55
2022/10/05 06:13:40;;;;;;;11.37;10.30;;;10.40;99.90;;;;;;5115889;28;20428;-55
2022/10/05 06:16:17;;;;;;;11.30;9.67;;;10.40;99.90;;;;;;5114165;28;20538;-55
2022/10/05 06:18:50;;;;;;;11.07;9.97;;;10.50;99.90;;;;;;5115777;28;20438;-55
2022/10/05 06:21:23;;;;;;;12.87;9.50;;;10.60;99.90;;;;;;5115728;28;20474;-56
2022/10/05 06:23:56;;;;;;;11.90;10.33;;;10.60;99.90;;;;;;5113709;28;20789;-56
2022/10/05 06:26:55;;;;;;;11.60;9.70;;;10.70;99.90;;;;;;5115411;28;20513;-55
2022/10/05 06:29:26;;;;;;;10.53;9.43;;;10.70;99.90;;;;;;5112429;28;20450;-56
2022/10/05 06:32:09;;;;;;;16.27;10.40;;;10.80;99.90;;;;;;5113151;28;20489;-55
2022/10/05 06:34:53;;;;;;;12.63;10.30;;;10.80;99.90;;;;;;5115698;28;20815;-56
2022/10/05 06:37:29;;;;;;;11.20;10.00;;;10.90;99.90;;;;;;5116178;28;20430;-56
2022/10/05 06:40:08;;;;;;;12.27;9.70;;;11.00;99.90;;;;;;5111198;28;20915;-55
2022/10/05 06:43:05;;;;;;;11.20;9.00;;;11.00;99.90;;;;;;5113653;28;20473;-55
2022/10/05 06:45:41;;;;;;;9.70;8.70;;;11.00;99.90;;;;;;5111922;28;20462;-55
2022/10/05 06:48:16;;;;;;;10.43;9.30;;;11.10;99.90;;;;;;5113993;28;20448;-55
2022/10/05 06:50:48;;;;;;;9.93;8.70;;;11.10;99.90;;;;;;5114609;28;20427;-54
2022/10/05 06:53:28;;;;;;;13.37;10.03;;;11.20;99.90;;;;;;5111646;28;20489;-56
2022/10/05 06:56:04;;;;;;;10.50;9.60;;;11.30;99.90;;;;;;5114518;28;20885;-55
2022/10/05 06:58:47;;;;;;;10.57;9.53;;;11.40;99.90;;;;;;5113877;28;20437;-55
2022/10/05 07:01:25;;;;;;;12.63;8.90;;;11.30;99.90;;;;;;5112133;28;20476;-55
2022/10/05 07:04:07;;;;;;;10.50;9.40;;;11.30;99.90;;;;;;5114029;28;20505;-55
2022/10/05 07:06:38;;;;;;;10.63;9.23;;;11.30;99.90;;;;;;5114167;28;20455;-55
2022/10/05 07:09:20;;;;;;;10.57;8.67;;;11.30;99.90;;;;;;5111588;28;20418;-55
2022/10/05 07:12:14;;;;;;;14.27;10.47;;;11.30;99.90;;;;;;5114041;28;20475;-56
2022/10/05 07:14:58;;;;;;;9.20;8.30;;;11.40;99.90;;;;;;5110767;28;20537;-55
2022/10/05 07:17:43;;;;;;;12.57;10.30;;;11.50;99.90;;;;;;5113145;28;20914;-55
2022/10/05 07:20:17;;;;;;;11.53;10.40;;;11.50;99.90;;;;;;5112994;28;20925;-55
2022/10/05 07:23:12;;;;;;;12.20;9.70;;;11.50;99.90;;;;;;5110992;28;21236;-55
2022/10/05 07:25:43;;;;;;;10.03;8.30;;;;;;;;;;5113103;28;20477;-55
2022/10/05 07:28:17;;;;;;;10.80;9.67;;;11.70;99.90;;;;;;5113443;28;20958;-55
2022/10/05 07:30:54;;;;;;;14.40;9.70;;;11.70;99.90;;;;;;5111248;28;20483;-55
2022/10/05 07:33:27;;;;;;;14.43;9.90;;;11.60;99.90;;;;;;5114326;28;20470;-55
2022/10/05 07:38:57;;;;;;;9.43;8.40;;;11.80;99.90;;;;;;5110623;28;20406;-55
2022/10/05 07:41:31;;;;;;;10.60;8.67;;;11.80;99.90;;;;;;5112803;28;20438;-55
2022/10/05 07:44:07;;;;;;;10.77;9.07;;;11.90;99.90;;;;;;5113159;28;20430;-55
2022/10/05 07:46:45;;;;;;;11.20;8.63;;;11.90;99.90;;;;;;5110834;28;20431;-55
2022/10/05 07:49:19;;;;;;;12.17;9.57;;;11.90;99.90;;;;;;5112926;28;20427;-55
2022/10/05 07:51:49;;;;;;;11.50;9.40;;;12.00;99.90;;;;;;5113387;28;20490;-56
2022/10/05 07:54:22;;;;;;;9.83;8.70;;;12.00;99.90;;;;;;5110807;28;21012;-56
2022/10/05 07:56:54;;;;;;;9.70;8.70;;;12.10;99.90;;;;;;5113137;28;20434;-55
2022/10/05 07:59:30;;;;;;;10.13;9.13;;;12.30;99.90;;;;;;5111549;28;20825;-55
2022/10/05 08:02:11;;;;;;;13.23;10.33;;;12.40;99.90;;;;;;5113182;28;20466;-55
2022/10/05 08:04:47;;;;;;;9.30;8.30;;;12.40;99.90;;;;;;5112750;28;20469;-55
2022/10/05 08:07:16;;;;;;;10.93;9.77;;;12.50;99.90;;;;;;5111232;28;20431;-55
2022/10/05 08:09:53;;;;;;;10.93;9.33;;;12.50;99.90;;;;;;5112322;28;20457;-55
2022/10/05 08:12:29;;;;;;;11.90;8.23;;;12.50;99.90;;;;;;5112344;28;20554;-56
2022/10/05 08:14:58;;;;;;;11.40;8.67;;;12.60;99.90;;;;;;5111117;28;20427;-55
2022/10/05 08:17:41;;;;;;;11.63;9.40;;;12.70;99.90;;;;;;5113662;28;20909;-55
2022/10/05 08:20:24;;;;;;;11.03;9.03;;;12.80;99.90;;;;;;5113397;28;20427;-55
2022/10/05 08:22:58;;;;;;;12.83;9.23;;;12.80;99.90;;;;;;5111574;28;20470;-55
2022/10/05 08:25:26;;;;;;;10.33;9.20;;;12.90;99.90;;;;;;5113339;28;20463;-55
2022/10/05 08:28:03;;;;;;;12.07;10.97;;;12.90;99.90;;;;;;5113306;28;20469;-55
2022/10/05 08:30:33;;;;;;;10.03;9.03;;;13.00;99.90;;;;;;5111028;28;20482;-55
2022/10/05 08:33:09;;;;;;;12.23;10.43;;;13.20;99.90;;;;;;5113420;28;20462;-55
2022/10/05 08:35:42;;;;;;;12.73;9.67;;;13.20;99.90;;;;;;5113314;28;20510;-55
2022/10/05 08:38:15;;;;;;;11.60;8.97;;;13.30;99.90;;;;;;5111262;28;20470;-55
2022/10/05 08:41:05;;;;;;;10.33;9.27;;;13.30;99.90;;;;;;5113077;28;20430;-55
2022/10/05 08:44:05;;;;;;;9.50;8.23;;;13.40;99.90;;;;;;5113151;28;20431;-57
2022/10/05 08:47:10;;;;;;;9.83;8.83;;;13.50;99.90;;;;;;5112894;28;20466;-57
2022/10/05 08:50:08;;;;;;;10.37;9.40;;;13.60;99.90;;;;;;5093994;28;20945;-56
2022/10/05 08:52:51;;;;;;;9.60;8.60;;;13.70;99.90;;;;;;5109155;28;20473;-56
2022/10/05 08:55:40;;;;;;;9.70;8.70;;;13.80;99.90;;;;;;5112718;28;20415;-57
2022/10/05 08:58:54;;;;;;;11.63;9.70;;;13.90;99.90;;;;;;5113258;28;20430;-55
2022/10/05 09:01:30;;;;;;;10.40;9.00;;;14.00;99.90;;;;;;5112540;28;20849;-55
2022/10/05 09:04:30;;;;;;;12.00;8.87;;;14.20;99.90;;;;;;5112725;28;20437;-54
2022/10/05 09:07:19;;;;;;;13.83;9.10;;;14.30;99.90;;;;;;5110533;28;20426;-56
2022/10/05 09:10:23;;;;;;;10.90;8.87;;;14.40;99.90;;;;;;5112670;28;20423;-56
2022/10/05 09:13:30;;;;;;;9.83;8.83;;;14.50;99.90;;;;;;5112669;28;20980;-56
2022/10/05 09:16:29;;;;;;;9.23;8.30;;;14.60;99.90;;;;;;5101311;28;20529;-56
2022/10/05 09:19:13;;;;;;;13.70;9.10;;;14.70;99.90;;;;;;5112801;28;20813;-56
2022/10/05 09:21:42;;;;;;;10.13;8.60;;;14.90;99.90;;;;;;5110281;28;20993;-56
2022/10/05 09:24:28;;;;;;;12.93;8.80;;;15.00;99.90;;;;;;5112445;28;20537;-55
2022/10/05 09:27:09;;;;;;;9.37;8.47;;;15.10;99.90;;;;;;5110982;28;20458;-56
2022/10/05 09:30:05;;;;;;;10.87;9.40;;;15.20;99.90;;;;;;5109578;28;20662;-56
2022/10/05 09:33:06;;;;;;;9.10;7.43;;;15.30;99.90;;;;;;5111362;28;20462;-56
2022/10/05 09:36:05;;;;;;;8.77;7.97;;;15.40;99.90;;;;;;5110695;28;20438;-55
2022/10/05 09:38:53;;;;;;;9.93;8.23;;;15.50;99.90;;;;;;5111493;28;20427;-55
2022/10/05 09:42:13;;;;;;;10.30;8.90;;;15.80;99.90;;;;;;5111433;28;20526;-55
2022/10/05 09:45:12;;;;;;;8.93;7.43;;;16.80;99.90;;;;;;5029956;28;20429;-55
2022/10/05 09:48:40;;;;;;;13.80;7.50;;;18.40;99.90;;;;;;5098384;28;20515;-55
2022/10/05 09:51:33;;;;;;;9.00;6.80;;;19.70;99.90;;;;;;5111811;28;20454;-56
2022/10/05 09:54:18;;;;;;;6.80;6.10;;;;;;;;;;5112199;28;20568;-57
2022/10/05 09:57:03;;;;;;;7.00;5.90;;;;;;;;;;5115514;28;20434;-56
2022/10/05 10:00:04;;;;;;;6.50;5.90;;;22.80;99.90;;;;;;5113608;28;20430;-58
2022/10/05 10:02:56;;;;;;;10.30;6.13;;;23.30;99.90;;;;;;5115336;28;20488;-56
2022/10/05 10:05:48;;;;;;;10.30;5.97;;;23.40;99.90;;;;;;5112512;28;20499;-56
2022/10/05 10:08:25;;;;;;;6.73;5.50;;;24.30;99.90;;;;;;5115438;28;20525;-57
2022/10/05 10:11:01;;;;;;;8.40;6.80;;;24.80;99.90;;;;;;5115141;28;20437;-57
2022/10/05 10:13:40;;;;;;;5.43;4.80;;;;;;;;;;5112957;28;20462;-57
2022/10/05 10:16:27;;;;;;;6.93;4.63;;;25.30;99.90;;;;;;5115605;28;20414;-56
2022/10/05 10:19:19;;;;;;;6.40;5.40;;;25.30;99.90;;;;;;5115208;28;20518;-57
2022/10/05 10:22:15;;;;;;;5.73;5.13;;;25.70;99.90;;;;;;5113343;28;20792;-57
2022/10/05 10:25:03;;;;;;;5.93;5.23;;;25.80;99.90;;;;;;5114597;28;20427;-58
2022/10/05 10:27:53;;;;;;;8.00;5.47;;;25.70;99.90;;;;;;5095902;28;20445;-56
2022/10/05 10:31:00;;;;;;;7.30;4.70;;;25.90;99.90;;;;;;5115375;28;20454;-58
2022/10/05 10:33:59;;;;;;;12.37;5.27;;;26.70;99.90;;;;;;5071483;28;20542;-58
2022/10/05 10:36:45;;;;;;;5.77;4.20;;;26.20;99.90;;;;;;5092010;28;20503;-57
2022/10/05 10:39:23;;;;;;;4.90;3.93;;;26.00;99.90;;;;;;5115539;28;20426;-57
2022/10/05 10:42:10;;;;;;;6.07;3.70;;;26.00;99.90;;;;;;5114406;28;20462;-58
2022/10/05 10:45:00;;;;;;;5.07;3.63;;;26.50;99.90;;;;;;5112526;28;20908;-58
2022/10/05 10:47:50;;;;;;;3.90;3.60;;;26.90;99.90;;;;;;5114025;28;20492;-57
2022/10/05 10:50:49;;;;;;;4.00;3.47;;;27.90;98.00;;;;;;5112789;28;20427;-58
2022/10/05 10:54:02;;;;;;;3.30;3.00;;;27.70;98.00;;;;;;5113722;28;20573;-56
2022/10/05 10:56:53;;;;;;;7.00;4.00;;;27.70;96.40;;;;;;5114596;28;20794;-57
2022/10/05 10:59:57;;;;;;;4.60;3.50;;;28.20;96.60;;;;;;5112374;28;20458;-56
2022/10/05 11:02:45;;;;;;;3.37;3.10;;;28.20;96.10;;;;;;5113339;28;20472;-58
2022/10/05 11:05:37;;;;;;;8.43;3.23;;;28.60;96.30;;;;;;5111854;28;20864;-59
2022/10/05 11:08:39;;;;;;;5.00;3.13;;;29.10;94.40;;;;;;5113147;28;20944;-58
2022/10/05 11:11:48;;;;;;;3.40;3.03;;;29.20;94.90;;;;;;5070859;28;20596;-58
2022/10/05 11:14:45;;;;;;;4.00;3.07;;;29.50;92.50;;;;;;5072482;28;20451;-58
2022/10/05 11:17:56;;;;;;;3.63;2.23;;;29.00;92.30;;;;;;5113864;28;20423;-59
2022/10/05 11:20:55;;;;;;;4.20;2.50;;;28.60;91.60;;;;;;5114838;28;20427;-59
2022/10/05 11:23:52;;;;;;;4.70;2.23;;;28.40;92.50;;;;;;5114580;28;20802;-59
2022/10/05 11:26:41;;;;;;;3.30;2.30;;;28.60;92.70;;;;;;5114839;28;20490;-58
2022/10/05 11:29:46;;;;;;;2.33;2.13;;;27.90;92.40;;;;;;5114052;28;20926;-58
2022/10/05 11:33:10;;;;;;;3.83;2.40;;;27.70;92.50;;;;;;5089131;28;20937;-56
2022/10/05 11:36:16;;;;;;;3.20;2.50;;;28.00;92.60;;;;;;5022240;28;20446;-57
2022/10/05 11:39:25;;;;;;;6.80;2.57;;;27.50;92.10;;;;;;5031193;28;20422;-58
2022/10/05 11:42:31;;;;;;;2.80;2.40;;;28.20;92.70;;;;;;5112369;28;21044;-58
2022/10/05 11:45:20;;;;;;;2.43;2.23;;;27.80;92.60;;;;;;5113389;28;20475;-59
2022/10/05 11:48:26;;;;;;;3.67;2.20;;;28.50;92.10;;;;;;5113018;28;20424;-58
2022/10/05 11:51:18;;;;;;;2.80;2.30;;;28.70;91.70;;;;;;5068547;28;20427;-58
2022/10/05 11:53:56;;;;;;;5.10;4.63;;;28.40;91.50;;;;;;5096192;28;20530;-57
2022/10/05 11:56:29;;;;;;;4.60;2.90;;;28.80;91.20;;;;;;5112445;28;20521;-58
2022/10/05 11:59:01;;;;;;;4.00;2.97;;;28.10;91.30;;;;;;5112324;28;20419;-59
2022/10/05 12:01:37;;;;;;;3.00;2.67;;;27.50;92.20;;;;;;5113229;28;20500;-59
2022/10/05 12:04:14;;;;;;;3.30;2.37;;;27.80;92.30;;;;;;5110495;28;20522;-57
2022/10/05 12:06:58;;;;;;;2.97;2.67;;;27.80;92.60;;;;;;5112388;28;20498;-57
2022/10/05 12:10:12;;;;;;;2.57;2.40;;;27.50;92.10;;;;;;5112619;28;20462;-58
2022/10/05 12:12:37;;;;;;;2.60;2.40;;;27.20;92.50;;;;;;5109917;28;20588;-57
2022/10/05 12:15:17;;;;;;;2.77;2.57;;;27.60;92.30;;;;;;5112681;28;20461;-57
2022/10/05 12:17:52;;;;;;;2.80;2.60;;;27.00;93.00;;;;;;5112890;28;20437;-58
2022/10/05 12:20:24;;;;;;;2.93;2.73;;;27.40;92.90;;;;;;5110458;28;20509;-58
2022/10/05 12:22:56;;;;;;;3.00;2.53;;;28.10;92.90;;;;;;5111946;28;20466;-58
2022/10/05 12:25:33;;;;;;;2.80;2.30;;;28.10;92.30;;;;;;5112193;28;20449;-57
2022/10/05 12:28:05;;;;;;;4.63;2.40;;;27.90;92.60;;;;;;5110069;28;20433;-58
2022/10/05 12:30:53;;;;;;;4.13;2.87;;;27.70;93.00;;;;;;5112208;28;20454;-58
2022/10/05 12:33:24;;;;;;;2.80;2.50;;;28.10;92.70;;;;;;5111705;28;20470;-57
2022/10/05 12:35:58;;;;;;;2.77;2.57;;;27.80;92.20;;;;;;5111395;28;20495;-58
2022/10/05 12:38:30;;;;;;;6.20;5.53;;;27.80;92.50;;;;;;5112395;28;20426;-58
2022/10/05 12:41:07;;;;;;;2.90;2.60;;;28.10;93.20;;;;;;5110121;28;20526;-58
2022/10/05 12:43:45;;;;;;;3.10;2.30;;;28.00;92.50;;;;;;5111811;28;20498;-57
2022/10/05 12:46:20;;;;;;;2.33;2.13;;;27.70;92.40;;;;;;5111721;28;20998;-58
2022/10/05 12:49:00;;;;;;;2.70;2.50;;;28.20;91.90;;;;;;5110030;28;20433;-58
2022/10/05 12:51:38;;;;;;;2.30;2.20;;;28.00;91.40;;;;;;5112098;28;20995;-58
2022/10/05 12:54:14;;;;;;;3.63;2.40;;;28.10;91.80;;;;;;5111445;28;20991;-58
2022/10/05 12:56:53;;;;;;;2.07;1.93;;;28.30;92.80;;;;;;5109664;28;20430;-58
2022/10/05 12:59:34;;;;;;;6.13;1.90;;;28.00;91.30;;;;;;5111902;28;20517;-58
2022/10/05 13:02:11;;;;;;;2.20;2.00;;;28.10;91.40;;;;;;5111180;28;20458;-57
2022/10/05 13:04:48;;;;;;;2.17;1.97;;;27.90;90.90;;;;;;5110021;28;20889;-57
2022/10/05 13:07:31;;;;;;;2.60;2.20;;;28.10;91.30;;;;;;5111597;28;20462;-58
2022/10/05 13:10:08;;;;;;;1.70;1.60;;;28.10;89.30;;;;;;5111691;28;20988;-58
2022/10/05 13:12:46;;;;;;;5.10;1.90;;;28.10;87.40;;;;;;5109871;28;20522;-58
2022/10/05 13:15:22;;;;;;;2.43;2.10;;;28.10;88.90;;;;;;5112141;28;20435;-57
2022/10/05 13:18:01;;;;;;;2.50;2.00;;;28.00;88.70;;;;;;5110329;28;20427;-57
2022/10/05 13:20:35;;;;;;;4.37;2.20;;;28.00;87.60;;;;;;5112012;28;20429;-57
2022/10/05 13:23:12;;;;;;;2.37;2.17;;;28.20;87.50;;;;;;5111321;28;20957;-58
2022/10/05 13:25:46;;;;;;;2.57;2.30;;;27.70;89.60;;;;;;5108892;28;21041;-57
2022/10/05 13:28:19;;;;;;;1.70;1.60;;;27.20;83.80;;;;;;5111347;28;20426;-57
2022/10/05 13:30:57;;;;;;;2.63;2.30;;;27.40;86.90;;;;;;5111575;28;20507;-58
2022/10/05 13:33:32;;;;;;;2.07;1.87;;;27.60;84.40;;;;;;5109906;28;20558;-57
2022/10/05 13:36:10;;;;;;;1.73;1.63;;;27.10;83.30;;;;;;5111649;28;20513;-57
2022/10/05 13:38:51;;;;;;;3.07;2.10;;;26.50;82.70;;;;;;5111376;28;20495;-57
2022/10/05 13:41:28;;;;;;;2.13;1.70;;;26.30;83.00;;;;;;5109365;28;20423;-58
2022/10/05 13:44:09;;;;;;;1.53;1.43;;;26.10;83.60;;;;;;5110944;28;20836;-58
2022/10/05 13:46:42;;;;;;;1.70;1.47;;;26.00;83.50;;;;;;5111269;28;20462;-57
2022/10/05 13:49:21;;;;;;;2.40;2.20;;;25.90;83.60;;;;;;5109025;28;20431;-57
2022/10/05 13:51:57;;;;;;;1.63;1.53;;;26.00;83.80;;;;;;5110945;28;20473;-58
2022/10/05 13:54:35;;;;;;;2.10;1.73;;;25.90;83.80;;;;;;5111337;28;20482;-57
2022/10/05 13:57:10;;;;;;;1.90;1.70;;;26.20;84.00;;;;;;5109445;28;20799;-57